createdAt,value
2022-09-01T00:00:07.873Z,17.13
2022-09-01T00:01:07.807Z,17.11
2022-09-01T00:02:07.919Z,17.09
2022-09-01T00:03:10.665Z,17.1
2022-09-01T00:04:08.085Z,17.11
2022-09-01T00:05:07.848Z,17.11
2022-09-01T00:06:07.801Z,17.12
2022-09-01T00:07:08.128Z,17.11
2022-09-01T00:08:07.837Z,17.08
2022-09-01T00:09:08.058Z,17.06
2022-09-01T00:10:07.801Z,17.06
2022-09-01T00:11:07.848Z,16.99
2022-09-01T00:12:07.794Z,16.98
2022-09-01T00:13:07.760Z,17.01
2022-09-01T00:14:30.405Z,16.99
2022-09-01T00:15:07.906Z,16.98
2022-09-01T00:16:07.771Z,16.94
2022-09-01T00:17:07.860Z,16.93
2022-09-01T00:18:07.681Z,16.94
2022-09-01T00:19:08.129Z,16.96
2022-09-01T00:20:07.801Z,16.98
2022-09-01T00:21:07.721Z,17.06
2022-09-01T00:22:08.067Z,17.01
2022-09-01T00:23:07.798Z,17.02
2022-09-01T00:24:08.134Z,17.03
2022-09-01T00:25:10.803Z,17.03
2022-09-01T00:26:07.882Z,17.01
2022-09-01T00:27:07.858Z,17
2022-09-01T00:28:07.773Z,17
2022-09-01T00:29:08.149Z,16.97
2022-09-01T00:30:07.881Z,16.91
2022-09-01T00:31:07.883Z,16.92
2022-09-01T00:32:07.789Z,16.94
2022-09-01T00:33:07.766Z,16.94
2022-09-01T00:34:08.130Z,16.98
2022-09-01T00:35:07.904Z,16.98
2022-09-01T00:36:10.911Z,16.99
2022-09-01T00:37:08.202Z,17
2022-09-01T00:38:07.807Z,16.98
2022-09-01T00:39:08.173Z,16.96
2022-09-01T00:40:07.927Z,16.98
2022-09-01T00:41:07.807Z,16.96
2022-09-01T00:42:07.815Z,16.94
2022-09-01T00:43:07.708Z,16.94
2022-09-01T00:44:08.138Z,16.91
2022-09-01T00:45:08.488Z,16.89
2022-09-01T00:46:07.955Z,16.87
2022-09-01T00:47:10.834Z,16.87
2022-09-01T00:48:07.751Z,16.92
2022-09-01T00:49:08.330Z,16.93
2022-09-01T00:50:07.909Z,16.94
2022-09-01T00:51:07.772Z,16.98
2022-09-01T00:52:08.123Z,16.99
2022-09-01T00:53:07.769Z,16.99
2022-09-01T00:54:08.124Z,16.98
2022-09-01T00:55:07.888Z,16.96
2022-09-01T00:56:07.839Z,16.96
2022-09-01T00:57:07.866Z,16.96
2022-09-01T00:58:19.620Z,16.96
2022-09-01T00:59:08.064Z,16.94
2022-09-01T01:00:07.787Z,16.92
2022-09-01T01:01:07.969Z,16.91
2022-09-01T01:02:07.913Z,16.88
2022-09-01T01:03:07.754Z,16.85
2022-09-01T01:04:08.061Z,16.85
2022-09-01T01:05:07.693Z,16.83
2022-09-01T01:06:07.837Z,16.79
2022-09-01T01:07:08.064Z,16.75
2022-09-01T01:08:07.742Z,16.73
2022-09-01T01:09:13.779Z,16.75
2022-09-01T01:10:07.907Z,16.77
2022-09-01T01:11:07.912Z,16.76
2022-09-01T01:12:07.884Z,16.77
2022-09-01T01:13:07.843Z,16.77
2022-09-01T01:14:08.140Z,16.76
2022-09-01T01:15:07.821Z,16.72
2022-09-01T01:16:07.799Z,16.7
2022-09-01T01:17:07.922Z,16.67
2022-09-01T01:18:07.670Z,16.64
2022-09-01T01:19:08.126Z,16.62
2022-09-01T01:20:10.815Z,16.64
2022-09-01T01:21:07.827Z,16.62
2022-09-01T01:22:08.127Z,16.59
2022-09-01T01:23:07.833Z,16.57
2022-09-01T01:24:08.133Z,16.56
2022-09-01T01:25:07.904Z,16.53
2022-09-01T01:26:07.816Z,16.53
2022-09-01T01:27:07.704Z,16.52
2022-09-01T01:28:07.683Z,16.52
2022-09-01T01:29:08.136Z,16.53
2022-09-01T01:30:09.345Z,16.51
2022-09-01T01:31:10.875Z,16.52
2022-09-01T01:32:07.885Z,16.51
2022-09-01T01:33:07.763Z,16.51
2022-09-01T01:34:08.130Z,16.5
2022-09-01T01:35:07.896Z,16.49
2022-09-01T01:36:07.901Z,16.46
2022-09-01T01:37:08.061Z,16.45
2022-09-01T01:38:07.770Z,16.46
2022-09-01T01:39:08.134Z,16.44
2022-09-01T01:40:07.949Z,16.43
2022-09-01T01:41:07.795Z,16.43
2022-09-01T01:42:10.825Z,16.46
2022-09-01T01:43:07.771Z,16.41
2022-09-01T01:44:08.130Z,16.41
2022-09-01T01:45:07.877Z,16.41
2022-09-01T01:46:07.879Z,16.36
2022-09-01T01:47:07.771Z,16.34
2022-09-01T01:48:07.760Z,16.36
2022-09-01T01:49:08.134Z,16.36
2022-09-01T01:50:07.875Z,16.38
2022-09-01T01:51:07.707Z,16.36
2022-09-01T01:52:08.378Z,16.35
2022-09-01T01:53:11.403Z,16.36
2022-09-01T01:54:08.069Z,16.36
2022-09-01T01:55:07.784Z,16.37
2022-09-01T01:56:07.848Z,16.36
2022-09-01T01:57:07.874Z,16.36
2022-09-01T01:58:07.756Z,16.36
2022-09-01T01:59:08.202Z,16.35
2022-09-01T02:00:07.847Z,16.38
2022-09-01T02:01:07.876Z,16.34
2022-09-01T02:02:07.749Z,16.31
2022-09-01T02:03:07.668Z,16.3
2022-09-01T02:04:13.823Z,16.29
2022-09-01T02:05:07.883Z,16.27
2022-09-01T02:06:07.858Z,16.26
2022-09-01T02:07:08.131Z,16.24
2022-09-01T02:08:07.834Z,16.26
2022-09-01T02:09:08.906Z,16.28
2022-09-01T02:10:07.806Z,16.25
2022-09-01T02:11:07.852Z,16.27
2022-09-01T02:12:07.885Z,16.27
2022-09-01T02:13:07.838Z,16.32
2022-09-01T02:14:07.836Z,16.33
2022-09-01T02:15:13.777Z,16.35
2022-09-01T02:16:07.978Z,16.36
2022-09-01T02:17:07.968Z,16.38
2022-09-01T02:18:07.824Z,16.4
2022-09-01T02:19:07.835Z,16.41
2022-09-01T02:20:08.060Z,16.45
2022-09-01T02:21:07.779Z,16.44
2022-09-01T02:22:08.131Z,16.43
2022-09-01T02:23:07.753Z,16.41
2022-09-01T02:24:07.843Z,16.42
2022-09-01T02:25:08.057Z,16.41
2022-09-01T02:26:17.320Z,16.38
2022-09-01T02:27:07.869Z,16.38
2022-09-01T02:28:07.698Z,16.38
2022-09-01T02:29:07.881Z,16.38
2022-09-01T02:30:08.052Z,16.37
2022-09-01T02:31:07.903Z,16.36
2022-09-01T02:32:07.821Z,16.31
2022-09-01T02:33:07.766Z,16.29
2022-09-01T02:34:08.124Z,16.27
2022-09-01T02:35:07.921Z,16.24
2022-09-01T02:36:07.898Z,16.24
2022-09-01T02:37:13.836Z,16.22
2022-09-01T02:38:07.847Z,16.21
2022-09-01T02:39:08.214Z,16.18
2022-09-01T02:40:07.957Z,16.14
2022-09-01T02:41:07.794Z,16.12
2022-09-01T02:42:07.893Z,16.08
2022-09-01T02:43:08.050Z,16.05
2022-09-01T02:44:07.796Z,16
2022-09-01T02:45:07.697Z,15.99
2022-09-01T02:46:07.829Z,16.01
2022-09-01T02:47:07.857Z,16
2022-09-01T02:48:13.694Z,16.01
2022-09-01T02:49:07.891Z,16.05
2022-09-01T02:50:07.868Z,16.03
2022-09-01T02:51:07.784Z,16.01
2022-09-01T02:52:08.144Z,16
2022-09-01T02:53:08.100Z,15.99
2022-09-01T02:54:07.819Z,15.99
2022-09-01T02:55:07.852Z,15.95
2022-09-01T02:56:07.885Z,15.89
2022-09-01T02:57:07.840Z,15.86
2022-09-01T02:58:08.132Z,15.81
2022-09-01T02:59:10.802Z,15.8
2022-09-01T03:00:07.911Z,15.8
2022-09-01T03:01:07.834Z,15.81
2022-09-01T03:02:07.692Z,15.81
2022-09-01T03:03:08.137Z,15.8
2022-09-01T03:04:07.914Z,15.8
2022-09-01T03:05:07.919Z,15.79
2022-09-01T03:06:07.818Z,15.79
2022-09-01T03:07:09.618Z,15.81
2022-09-01T03:08:08.057Z,15.84
2022-09-01T03:09:07.919Z,15.83
2022-09-01T03:10:10.826Z,15.87
2022-09-01T03:11:12.669Z,15.86
2022-09-01T03:12:07.729Z,15.84
2022-09-01T03:13:08.123Z,15.81
2022-09-01T03:14:07.868Z,15.8
2022-09-01T03:15:09.048Z,15.81
2022-09-01T03:16:07.829Z,15.8
2022-09-01T03:17:07.847Z,15.81
2022-09-01T03:18:08.055Z,15.89
2022-09-01T03:19:07.913Z,15.85
2022-09-01T03:20:07.888Z,15.86
2022-09-01T03:21:10.838Z,15.8
2022-09-01T03:22:07.882Z,15.78
2022-09-01T03:23:08.129Z,15.76
2022-09-01T03:24:07.879Z,15.75
2022-09-01T03:25:07.804Z,15.74
2022-09-01T03:26:07.873Z,15.72
2022-09-01T03:27:07.712Z,15.69
2022-09-01T03:28:07.676Z,15.7
2022-09-01T03:29:07.818Z,15.69
2022-09-01T03:30:07.832Z,15.68
2022-09-01T03:31:07.801Z,15.66
2022-09-01T03:32:10.899Z,15.66
2022-09-01T03:33:08.053Z,15.66
2022-09-01T03:34:07.873Z,15.65
2022-09-01T03:35:07.805Z,15.64
2022-09-01T03:36:15.044Z,15.62
2022-09-01T03:37:07.927Z,15.62
2022-09-01T03:38:08.061Z,15.64
2022-09-01T03:39:07.823Z,15.66
2022-09-01T03:40:07.936Z,15.68
2022-09-01T03:41:07.787Z,15.67
2022-09-01T03:42:07.716Z,15.64
2022-09-01T03:43:11.059Z,15.61
2022-09-01T03:44:07.919Z,15.59
2022-09-01T03:45:07.774Z,15.61
2022-09-01T03:46:07.880Z,15.63
2022-09-01T03:47:07.884Z,15.63
2022-09-01T03:48:08.136Z,15.63
2022-09-01T03:49:07.785Z,15.61
2022-09-01T03:50:07.807Z,15.58
2022-09-01T03:51:07.890Z,15.54
2022-09-01T03:52:07.778Z,15.54
2022-09-01T03:53:08.128Z,15.53
2022-09-01T03:54:10.824Z,15.61
2022-09-01T03:55:07.909Z,15.54
2022-09-01T03:56:07.789Z,15.5
2022-09-01T03:57:07.794Z,15.5
2022-09-01T03:58:10.111Z,15.54
2022-09-01T03:59:07.858Z,15.51
2022-09-01T04:00:07.827Z,15.49
2022-09-01T04:01:08.293Z,15.5
2022-09-01T04:02:07.777Z,15.46
2022-09-01T04:03:08.133Z,15.43
2022-09-01T04:04:07.898Z,15.42
2022-09-01T04:05:10.766Z,15.4
2022-09-01T04:06:07.875Z,15.38
2022-09-01T04:07:07.720Z,15.36
2022-09-01T04:08:08.128Z,15.37
2022-09-01T04:09:07.889Z,15.36
2022-09-01T04:10:07.868Z,15.36
2022-09-01T04:11:07.784Z,15.37
2022-09-01T04:12:07.695Z,15.37
2022-09-01T04:13:08.130Z,15.37
2022-09-01T04:14:07.876Z,15.34
2022-09-01T04:15:07.724Z,15.32
2022-09-01T04:16:10.987Z,15.32
2022-09-01T04:17:07.884Z,15.29
2022-09-01T04:18:08.124Z,15.3
2022-09-01T04:19:07.915Z,15.35
2022-09-01T04:20:07.905Z,15.4
2022-09-01T04:21:07.886Z,15.41
2022-09-01T04:22:07.799Z,15.41
2022-09-01T04:23:08.059Z,15.41
2022-09-01T04:24:07.829Z,15.43
2022-09-01T04:25:07.797Z,15.44
2022-09-01T04:26:07.700Z,15.42
2022-09-01T04:27:10.723Z,15.42
2022-09-01T04:28:08.054Z,15.43
2022-09-01T04:29:07.916Z,15.41
2022-09-01T04:30:07.806Z,15.45
2022-09-01T04:31:10.825Z,15.42
2022-09-01T04:32:07.946Z,15.43
2022-09-01T04:33:07.767Z,15.43
2022-09-01T04:34:07.814Z,15.45
2022-09-01T04:35:07.906Z,15.47
2022-09-01T04:36:07.864Z,15.44
2022-09-01T04:37:07.837Z,15.4
2022-09-01T04:38:13.722Z,15.39
2022-09-01T04:39:07.909Z,15.39
2022-09-01T04:40:07.826Z,15.39
2022-09-01T04:41:07.813Z,15.38
2022-09-01T04:42:07.872Z,15.35
2022-09-01T04:43:08.125Z,15.35
2022-09-01T04:44:07.801Z,15.38
2022-09-01T04:45:10.738Z,15.37
2022-09-01T04:46:07.880Z,15.4
2022-09-01T04:47:07.902Z,15.38
2022-09-01T04:48:08.108Z,15.38
2022-09-01T04:49:12.929Z,15.38
2022-09-01T04:50:07.901Z,15.38
2022-09-01T04:51:07.812Z,15.39
2022-09-01T04:52:07.822Z,15.33
2022-09-01T04:53:08.071Z,15.34
2022-09-01T04:54:07.859Z,15.31
2022-09-01T04:55:07.783Z,15.3
2022-09-01T04:56:07.829Z,15.3
2022-09-01T04:57:07.787Z,15.33
2022-09-01T04:58:10.251Z,15.38
2022-09-01T04:59:07.845Z,15.41
2022-09-01T05:00:10.832Z,15.46
2022-09-01T05:01:07.955Z,15.49
2022-09-01T05:02:08.026Z,15.47
2022-09-01T05:03:08.135Z,15.47
2022-09-01T05:04:07.874Z,15.45
2022-09-01T05:05:07.734Z,15.43
2022-09-01T05:06:07.850Z,15.44
2022-09-01T05:07:07.841Z,15.46
2022-09-01T05:08:07.752Z,15.48
2022-09-01T05:09:07.804Z,15.51
2022-09-01T05:10:07.877Z,15.52
2022-09-01T05:11:10.839Z,15.54
2022-09-01T05:12:07.885Z,15.58
2022-09-01T05:13:08.052Z,15.59
2022-09-01T05:14:07.776Z,15.63
2022-09-01T05:15:07.831Z,15.65
2022-09-01T05:16:07.914Z,15.76
2022-09-01T05:17:07.703Z,15.83
2022-09-01T05:18:08.131Z,15.96
2022-09-01T05:19:07.885Z,16.02
2022-09-01T05:20:07.887Z,16.05
2022-09-01T05:21:07.780Z,16.13
2022-09-01T05:22:10.837Z,16.25
2022-09-01T05:23:07.754Z,16.33
2022-09-01T05:24:07.823Z,16.34
2022-09-01T05:25:07.875Z,16.39
2022-09-01T05:26:07.842Z,16.5
2022-09-01T05:27:07.879Z,16.59
2022-09-01T05:28:08.050Z,16.72
2022-09-01T05:29:07.787Z,16.84
2022-09-01T05:30:07.839Z,16.99
2022-09-01T05:31:07.903Z,16.91
2022-09-01T05:32:07.842Z,16.93
2022-09-01T05:33:13.698Z,16.9
2022-09-01T05:34:07.907Z,16.91
2022-09-01T05:35:07.888Z,16.9
2022-09-01T05:36:07.717Z,17.04
2022-09-01T05:37:07.801Z,17.1
2022-09-01T05:38:08.630Z,17.06
2022-09-01T05:39:07.786Z,17.07
2022-09-01T05:40:07.866Z,17.09
2022-09-01T05:41:07.913Z,17.11
2022-09-01T05:42:07.863Z,17
2022-09-01T05:43:08.127Z,17.05
2022-09-01T05:44:10.770Z,17.09
2022-09-01T05:45:07.858Z,17.14
2022-09-01T05:46:07.793Z,17.17
2022-09-01T05:47:07.847Z,17.21
2022-09-01T05:48:08.165Z,17.31
2022-09-01T05:49:07.865Z,17.41
2022-09-01T05:50:12.191Z,17.42
2022-09-01T05:51:22.237Z,17.4
2022-09-01T05:52:07.878Z,17.41
2022-09-01T05:53:08.644Z,17.48
2022-09-01T05:54:08.097Z,17.49
2022-09-01T05:55:10.816Z,17.48
2022-09-01T05:56:07.919Z,17.47
2022-09-01T05:57:30.414Z,17.48
2022-09-01T05:58:08.130Z,17.49
2022-09-01T05:59:24.823Z,17.54
2022-09-01T06:00:07.806Z,17.58
2022-09-01T06:01:07.707Z,17.67
2022-09-01T06:02:07.912Z,17.75
2022-09-01T06:03:08.213Z,18.06
2022-09-01T06:04:07.862Z,18.07
2022-09-01T06:05:07.718Z,18.23
2022-09-01T06:06:10.835Z,18.4
2022-09-01T06:07:08.959Z,18.38
2022-09-01T06:08:08.126Z,18.24
2022-09-01T06:09:08.067Z,17.94
2022-09-01T06:10:07.858Z,18.03
2022-09-01T06:11:07.832Z,18.09
2022-09-01T06:12:07.691Z,18.05
2022-09-01T06:13:08.133Z,17.92
2022-09-01T06:14:07.853Z,17.9
2022-09-01T06:15:07.805Z,17.81
2022-09-01T06:16:07.917Z,17.83
2022-09-01T06:17:10.755Z,17.83
2022-09-01T06:18:08.053Z,17.89
2022-09-01T06:19:07.811Z,17.95
2022-09-01T06:20:07.898Z,17.92
2022-09-01T06:21:07.824Z,18.01
2022-09-01T06:22:07.767Z,18.08
2022-09-01T06:23:08.104Z,18.06
2022-09-01T06:24:08.223Z,18.09
2022-09-01T06:25:07.868Z,18.01
2022-09-01T06:26:07.802Z,17.84
2022-09-01T06:27:07.810Z,17.81
2022-09-01T06:28:13.757Z,17.89
2022-09-01T06:29:07.819Z,17.92
2022-09-01T06:30:07.829Z,18.01
2022-09-01T06:31:07.943Z,18.14
2022-09-01T06:32:07.890Z,18.24
2022-09-01T06:33:08.121Z,18.38
2022-09-01T06:34:07.827Z,18.53
2022-09-01T06:35:07.698Z,18.7
2022-09-01T06:36:07.851Z,18.83
2022-09-01T06:37:07.857Z,18.9
2022-09-01T06:38:07.681Z,18.75
2022-09-01T06:39:13.784Z,18.76
2022-09-01T06:40:07.971Z,18.91
2022-09-01T06:41:07.925Z,19.01
2022-09-01T06:42:07.867Z,18.98
2022-09-01T06:43:08.185Z,18.79
2022-09-01T06:44:12.390Z,18.57
2022-09-01T06:45:07.795Z,18.59
2022-09-01T06:46:07.787Z,18.73
2022-09-01T06:47:07.994Z,19.04
2022-09-01T06:48:08.056Z,19.34
2022-09-01T06:49:07.791Z,19.31
2022-09-01T06:50:11.012Z,19.2
2022-09-01T06:51:17.109Z,19.12
2022-09-01T06:52:07.801Z,19.23
2022-09-01T06:53:34.993Z,19.35
2022-09-01T06:54:12.367Z,19.36
2022-09-01T06:55:08.130Z,19.4
2022-09-01T06:56:07.800Z,19.32
2022-09-01T06:58:46.245Z,19.74
2022-09-01T06:59:45.794Z,19.68
2022-09-01T07:00:45.815Z,19.71
2022-09-01T07:01:46.033Z,19.75
2022-09-01T07:02:45.888Z,19.61
2022-09-01T07:03:52.016Z,19.44
2022-09-01T07:04:45.943Z,19.4
2022-09-01T07:06:02.390Z,19.53
2022-09-01T07:07:53.399Z,19.56
2022-09-01T07:08:05.691Z,19.57
2022-09-01T07:10:23.554Z,20.06
2022-09-01T07:12:08.107Z,20.11
2022-09-01T07:12:26.555Z,20.23
2022-09-01T07:13:23.464Z,20.23
2022-09-01T07:14:23.277Z,20.29
2022-09-01T07:17:24.006Z,20.51
2022-09-01T07:18:03.101Z,20.89
2022-09-01T07:19:03.637Z,21.69
2022-09-01T07:20:25.216Z,21.56
2022-09-01T07:21:07.711Z,21.35
2022-09-01T07:22:07.517Z,21.42
2022-09-01T07:23:04.012Z,21.89
2022-09-01T07:24:10.397Z,22.33
2022-09-01T07:25:11.883Z,22.78
2022-09-01T07:26:04.468Z,22.7
2022-09-01T07:27:08.334Z,22.6
2022-09-01T07:28:03.153Z,22.67
2022-09-01T07:29:04.061Z,22.71
2022-09-01T07:30:03.138Z,22.73
2022-09-01T07:31:48.866Z,22.73
2022-09-01T07:33:41.973Z,22.67
2022-09-01T07:34:40.300Z,22.64
2022-09-01T07:36:25.645Z,22.71
2022-09-01T07:39:48.238Z,21.97
2022-09-01T07:43:33.357Z,21.88
2022-09-01T07:44:31.341Z,21.88
2022-09-01T07:45:31.355Z,21.61
2022-09-01T07:46:37.980Z,21.67
2022-09-01T07:47:53.269Z,21.64
2022-09-01T07:49:02.600Z,21.39
2022-09-01T07:49:36.638Z,21.09
2022-09-01T07:50:40.197Z,21
2022-09-01T07:51:35.937Z,20.91
2022-09-01T07:52:31.460Z,21.15
2022-09-01T07:53:31.366Z,21.19
2022-09-01T07:54:31.485Z,21.09
2022-09-01T07:55:31.767Z,21
2022-09-01T07:56:32.228Z,21.05
2022-09-01T07:57:31.442Z,21.16
2022-09-01T07:58:31.811Z,21.32
2022-09-01T07:59:34.555Z,21.78
2022-09-01T08:00:31.578Z,21.71
2022-09-01T08:01:31.497Z,21.4
2022-09-01T08:02:31.535Z,21.23
2022-09-01T08:03:31.782Z,21.47
2022-09-01T08:04:31.491Z,21.85
2022-09-01T08:05:31.467Z,22
2022-09-01T08:06:38.474Z,22.23
2022-09-01T08:07:31.555Z,22.39
2022-09-01T08:08:32.091Z,22.25
2022-09-01T08:09:37.556Z,22.14
2022-09-01T08:10:37.550Z,22.27
2022-09-01T08:12:01.727Z,22.47
2022-09-01T08:12:31.485Z,22.56
2022-09-01T08:13:34.642Z,22.59
2022-09-01T08:14:33.793Z,22.58
2022-09-01T08:15:41.005Z,22.39
2022-09-01T08:16:39.355Z,22.31
2022-09-01T08:17:50.218Z,22.57
2022-09-01T08:18:47.944Z,22.74
2022-09-01T08:19:31.417Z,23.02
2022-09-01T08:20:31.479Z,23.29
2022-09-01T08:21:34.483Z,23.08
2022-09-01T08:22:31.435Z,23.13
2022-09-01T08:23:31.770Z,23.05
2022-09-01T08:24:31.473Z,22.64
2022-09-01T08:25:31.475Z,22.58
2022-09-01T08:26:31.501Z,22.89
2022-09-01T08:27:31.489Z,23.15
2022-09-01T08:28:31.987Z,23.31
2022-09-01T08:29:31.499Z,23.5
2022-09-01T08:30:31.558Z,23.62
2022-09-01T08:31:31.491Z,23.71
2022-09-01T08:32:34.496Z,23.66
2022-09-01T08:33:31.694Z,23.43
2022-09-01T08:34:31.480Z,23.45
2022-09-01T08:35:31.416Z,23.52
2022-09-01T08:36:31.345Z,23.71
2022-09-01T08:37:31.454Z,23.78
2022-09-01T08:38:31.440Z,23.39
2022-09-01T08:39:31.468Z,23.17
2022-09-01T08:40:31.790Z,23
2022-09-01T08:41:35.507Z,22.89
2022-09-01T08:42:33.074Z,22.83
2022-09-01T08:43:37.436Z,23.21
2022-09-01T08:44:31.426Z,23.64
2022-09-01T08:45:31.459Z,23.9
2022-09-01T08:46:31.593Z,24.02
2022-09-01T08:47:43.749Z,23.9
2022-09-01T08:49:24.169Z,23.96
2022-09-01T08:49:42.597Z,24.05
2022-09-01T08:50:31.437Z,24.22
2022-09-01T08:51:31.383Z,24.41
2022-09-01T08:52:31.434Z,24.57
2022-09-01T08:53:32.714Z,24.3
2022-09-01T08:54:34.451Z,23.92
2022-09-01T08:55:31.532Z,24.03
2022-09-01T08:56:31.447Z,24.18
2022-09-01T08:57:31.356Z,24.07
2022-09-01T08:58:32.305Z,23.88
2022-09-01T08:59:31.447Z,23.85
2022-09-01T09:00:31.359Z,23.91
2022-09-01T09:01:31.745Z,24.05
2022-09-01T09:02:31.708Z,23.79
2022-09-01T09:03:40.524Z,23.45
2022-09-01T09:04:31.502Z,23.33
2022-09-01T09:05:34.509Z,23.57
2022-09-01T09:06:31.544Z,23.9
2022-09-01T09:07:31.446Z,24.12
2022-09-01T09:08:33.402Z,24.38
2022-09-01T09:09:34.013Z,24.35
2022-09-01T09:10:31.694Z,24.16
2022-09-01T09:11:31.337Z,24.11
2022-09-01T09:12:31.477Z,23.78
2022-09-01T09:13:31.696Z,24.07
2022-09-01T09:14:31.559Z,24.2
2022-09-01T09:15:31.570Z,24.34
2022-09-01T09:16:34.482Z,24.32
2022-09-01T09:17:31.527Z,24.14
2022-09-01T09:18:39.811Z,24.22
2022-09-01T09:19:31.538Z,24.09
2022-09-01T09:20:31.541Z,23.92
2022-09-01T09:21:31.451Z,24.03
2022-09-01T09:22:31.434Z,24
2022-09-01T09:23:31.446Z,23.58
2022-09-01T09:24:37.927Z,23.09
2022-09-01T09:25:31.703Z,23.23
2022-09-01T09:26:42.238Z,23.49
2022-09-01T09:27:34.475Z,23.72
2022-09-01T09:28:31.703Z,23.81
2022-09-01T09:29:31.521Z,23.77
2022-09-01T09:30:31.590Z,23.93
2022-09-01T09:31:31.482Z,24.06
2022-09-01T09:32:44.235Z,24.11
2022-09-01T09:33:49.737Z,23.88
2022-09-01T09:34:31.467Z,23.81
2022-09-01T09:35:31.691Z,23.75
2022-09-01T09:36:31.429Z,23.67
2022-09-01T09:37:31.442Z,23.69
2022-09-01T09:38:37.471Z,23.76
2022-09-01T09:39:31.420Z,23.8
2022-09-01T09:40:43.274Z,23.83
2022-09-01T09:41:31.609Z,23.71
2022-09-01T09:42:36.406Z,23.56
2022-09-01T09:43:31.822Z,23.2
2022-09-01T09:44:31.454Z,23.19
2022-09-01T09:45:31.423Z,23.3
2022-09-01T09:46:31.600Z,23.42
2022-09-01T09:47:43.203Z,23.24
2022-09-01T09:48:31.744Z,22.99
2022-09-01T09:49:37.456Z,23.09
2022-09-01T09:50:31.489Z,23.05
2022-09-01T09:51:31.348Z,23.16
2022-09-01T09:52:33.574Z,23.07
2022-09-01T09:53:31.764Z,23.11
2022-09-01T09:54:31.516Z,23.29
2022-09-01T09:55:31.697Z,23.41
2022-09-01T09:56:31.455Z,23.46
2022-09-01T09:57:31.563Z,23.66
2022-09-01T09:58:31.702Z,23.84
2022-09-01T09:59:54.080Z,23.91
2022-09-01T10:00:34.622Z,23.81
2022-09-01T10:01:31.532Z,23.51
2022-09-01T10:02:31.454Z,23.53
2022-09-01T10:03:31.694Z,23.59
2022-09-01T10:04:31.553Z,23.73
2022-09-01T10:05:31.517Z,23.95
2022-09-01T10:06:31.432Z,23.86
2022-09-01T10:07:31.449Z,23.85
2022-09-01T10:08:31.534Z,23.84
2022-09-01T10:09:31.470Z,23.88
2022-09-01T10:10:32.464Z,24.04
2022-09-01T10:11:35.810Z,23.99
2022-09-01T10:12:31.441Z,24.1
2022-09-01T10:13:33.115Z,24.15
2022-09-01T10:14:52.491Z,24.32
2022-09-01T10:15:31.435Z,24.37
2022-09-01T10:16:32.061Z,24.31
2022-09-01T10:17:31.474Z,24.2
2022-09-01T10:18:31.772Z,24.3
2022-09-01T10:19:35.626Z,24.5
2022-09-01T10:20:31.513Z,24.66
2022-09-01T10:21:31.526Z,24.72
2022-09-01T10:22:34.467Z,24.6
2022-09-01T10:23:31.774Z,24.56
2022-09-01T10:24:31.442Z,24.61
2022-09-01T10:25:32.529Z,24.8
2022-09-01T10:26:31.703Z,24.93
2022-09-01T10:27:31.564Z,25.02
2022-09-01T10:28:31.695Z,24.98
2022-09-01T10:29:34.773Z,24.99
2022-09-01T10:30:31.499Z,25.17
2022-09-01T10:31:32.724Z,25.34
2022-09-01T10:32:36.827Z,25.49
2022-09-01T10:33:37.359Z,25.76
2022-09-01T10:34:31.482Z,25.74
2022-09-01T10:35:31.429Z,25.5
2022-09-01T10:36:31.456Z,25.6
2022-09-01T10:37:31.537Z,25.85
2022-09-01T10:38:31.792Z,25.95
2022-09-01T10:39:32.829Z,25.97
2022-09-01T10:40:31.790Z,26.03
2022-09-01T10:41:35.639Z,26.1
2022-09-01T10:42:31.535Z,26.12
2022-09-01T10:43:36.329Z,26.27
2022-09-01T10:44:34.517Z,26.48
2022-09-01T10:45:31.441Z,26.55
2022-09-01T10:46:41.095Z,26.62
2022-09-01T10:47:31.455Z,26.82
2022-09-01T10:48:33.509Z,27.04
2022-09-01T10:49:31.393Z,27.02
2022-09-01T10:50:35.538Z,27.17
2022-09-01T10:51:38.364Z,26.94
2022-09-01T10:52:31.339Z,26.84
2022-09-01T10:53:33.411Z,26.66
2022-09-01T10:54:31.601Z,26.65
2022-09-01T10:55:34.498Z,26.77
2022-09-01T10:56:36.603Z,26.65
2022-09-01T10:57:31.557Z,26.5
2022-09-01T11:00:34.914Z,26.65
2022-09-01T11:01:15.550Z,26.77
2022-09-01T11:02:27.606Z,26.79
2022-09-01T11:03:31.385Z,26.41
2022-09-01T11:04:09.523Z,25.82
2022-09-01T11:05:12.041Z,25.42
2022-09-01T11:06:13.130Z,25.11
2022-09-01T11:07:12.498Z,25.11
2022-09-01T11:08:15.592Z,25.32
2022-09-01T11:09:09.322Z,25.45
2022-09-01T11:10:11.642Z,25.62
2022-09-01T11:11:08.993Z,25.83
2022-09-01T11:12:09.360Z,26.04
2022-09-01T11:13:09.051Z,25.82
2022-09-01T11:14:09.318Z,25.63
2022-09-01T11:15:09.056Z,25.67
2022-09-01T11:16:12.062Z,25.59
2022-09-01T11:17:09.098Z,25.66
2022-09-01T11:18:08.882Z,25.78
2022-09-01T11:19:13.990Z,25.92
2022-09-01T11:20:09.082Z,26.19
2022-09-01T11:21:08.979Z,26.41
2022-09-01T11:22:08.977Z,26.57
2022-09-01T11:23:08.996Z,26.78
2022-09-01T11:24:09.254Z,26.77
2022-09-01T11:25:11.670Z,26.54
2022-09-01T11:26:21.623Z,26.44
2022-09-01T11:27:15.151Z,26.38
2022-09-01T11:28:09.048Z,26.43
2022-09-01T11:29:09.011Z,26.47
2022-09-01T11:30:09.009Z,26.48
2022-09-01T11:31:09.125Z,26.45
2022-09-01T11:32:09.174Z,26.48
2022-09-01T11:33:08.888Z,26.47
2022-09-01T11:34:09.323Z,26.56
2022-09-01T11:35:09.065Z,26.65
2022-09-01T11:36:09.012Z,26.66
2022-09-01T11:37:09.029Z,26.69
2022-09-01T11:38:12.072Z,26.71
2022-09-01T11:39:09.241Z,26.77
2022-09-01T11:40:09.130Z,26.86
2022-09-01T11:41:08.974Z,26.87
2022-09-01T11:42:09.357Z,27.01
2022-09-01T11:43:12.618Z,27.16
2022-09-01T11:44:08.977Z,27.25
2022-09-01T11:45:09.033Z,27.42
2022-09-01T11:46:09.197Z,27.31
2022-09-01T11:47:13.650Z,27.25
2022-09-01T11:48:09.315Z,27.16
2022-09-01T11:49:12.041Z,27.14
2022-09-01T11:50:08.959Z,27.09
2022-09-01T11:51:08.971Z,27.34
2022-09-01T11:52:09.055Z,27.44
2022-09-01T11:53:09.323Z,27.2
2022-09-01T11:54:09.085Z,26.97
2022-09-01T11:55:08.980Z,26.96
2022-09-01T11:56:09.025Z,27.3
2022-09-01T11:57:09.241Z,27.34
2022-09-01T11:58:09.320Z,27.33
2022-09-01T11:59:08.964Z,27.37
2022-09-01T12:00:12.093Z,27.32
2022-09-01T12:01:09.097Z,27.21
2022-09-01T12:02:09.201Z,27.16
2022-09-01T12:03:09.389Z,27.42
2022-09-01T12:04:09.019Z,27.72
2022-09-01T12:05:09.083Z,27.9
2022-09-01T12:06:09.086Z,27.51
2022-09-01T12:07:11.048Z,26.88
2022-09-01T12:08:09.325Z,26.51
2022-09-01T12:09:09.113Z,26.34
2022-09-01T12:10:09.113Z,26.12
2022-09-01T12:11:12.023Z,26.37
2022-09-01T12:12:09.242Z,26.76
2022-09-01T12:13:09.241Z,27.08
2022-09-01T12:14:11.435Z,27.04
2022-09-01T12:15:09.007Z,26.88
2022-09-01T12:16:18.401Z,27.03
2022-09-01T12:17:09.030Z,27.36
2022-09-01T12:18:09.318Z,27.59
2022-09-01T12:19:09.074Z,27.99
2022-09-01T12:20:09.018Z,28.39
2022-09-01T12:21:09.003Z,28.7
2022-09-01T12:22:11.211Z,28.63
2022-09-01T12:23:09.247Z,28.53
2022-09-01T12:24:08.963Z,28.57
2022-09-01T12:25:08.877Z,28.81
2022-09-01T12:26:09.002Z,29.06
2022-09-01T12:27:09.238Z,29.44
2022-09-01T12:28:11.090Z,29.71
2022-09-01T12:29:09.032Z,29.44
2022-09-01T12:30:08.964Z,29.14
2022-09-01T12:31:09.022Z,29.36
2022-09-01T12:32:09.053Z,29.62
2022-09-01T12:33:23.623Z,29.89
2022-09-01T12:34:08.953Z,30.22
2022-09-01T12:35:11.479Z,30.13
2022-09-01T12:36:09.022Z,30.1
2022-09-01T12:37:09.047Z,30.41
2022-09-01T12:38:09.655Z,30.79
2022-09-01T12:39:09.817Z,30.82
2022-09-01T12:40:09.031Z,30.77
2022-09-01T12:41:09.006Z,31.04
2022-09-01T12:42:09.319Z,30.64
2022-09-01T12:43:09.248Z,29.94
2022-09-01T12:44:12.069Z,29.6
2022-09-01T12:45:09.157Z,29.6
2022-09-01T12:46:09.090Z,30.02
2022-09-01T12:47:09.074Z,29.95
2022-09-01T12:48:09.240Z,29.26
2022-09-01T12:49:09.097Z,29.04
2022-09-01T12:50:08.980Z,28.88
2022-09-01T12:51:09.444Z,28.88
2022-09-01T12:52:08.978Z,28.68
2022-09-01T12:53:09.315Z,28.7
2022-09-01T12:54:09.394Z,28.61
2022-09-01T12:55:12.221Z,28.71
2022-09-01T12:56:09.073Z,28.72
2022-09-01T12:57:09.088Z,29.13
2022-09-01T12:58:08.993Z,29.26
2022-09-01T12:59:14.294Z,29.25
2022-09-01T13:00:09.048Z,29.19
2022-09-01T13:01:16.259Z,29.24
2022-09-01T13:02:09.116Z,29.38
2022-09-01T13:03:09.204Z,29.51
2022-09-01T13:04:09.282Z,29.66
2022-09-01T13:05:10.008Z,29.67
2022-09-01T13:06:12.028Z,29.57
2022-09-01T13:07:09.074Z,29.56
2022-09-01T13:08:09.019Z,29.35
2022-09-01T13:09:10.217Z,28.95